sensor_id;sensor_type;location;lat;lon;timestamp;pressure;altitude;pressure_sealevel;temperature;humidity
61018;BME280;48171;51.550;5.434;2023-04-26T00:01:12;101953.91;;;4.12;86.08
61018;BME280;48171;51.550;5.434;2023-04-26T00:03:39;101959.00;;;4.09;85.92
61018;BME280;48171;51.550;5.434;2023-04-26T00:06:04;101957.22;;;4.08;86.03
61018;BME280;48171;51.550;5.434;2023-04-26T00:08:33;101950.22;;;4.07;86.08
61018;BME280;48171;51.550;5.434;2023-04-26T00:10:58;101948.44;;;4.06;85.98
61018;BME280;48171;51.550;5.434;2023-04-26T00:13:24;101946.66;;;4.05;85.87
61018;BME280;48171;51.550;5.434;2023-04-26T00:15:49;101951.88;;;4.05;85.88
61018;BME280;48171;51.550;5.434;2023-04-26T00:18:14;101951.81;;;4.04;85.64
61018;BME280;48171;51.550;5.434;2023-04-26T00:20:41;101950.81;;;4.00;85.61
61018;BME280;48171;51.550;5.434;2023-04-26T00:23:06;101951.56;;;3.97;85.40
61018;BME280;48171;51.550;5.434;2023-04-26T00:25:33;101949.75;;;3.95;85.54
61018;BME280;48171;51.550;5.434;2023-04-26T00:27:59;101949.69;;;3.93;84.96
61018;BME280;48171;51.550;5.434;2023-04-26T00:30:24;101945.09;;;3.88;85.30
61018;BME280;48171;51.550;5.434;2023-04-26T00:32:49;101954.56;;;3.84;85.38
61018;BME280;48171;51.550;5.434;2023-04-26T00:35:15;101946.53;;;3.79;85.99
61018;BME280;48171;51.550;5.434;2023-04-26T00:37:40;101952.47;;;3.75;85.66
61018;BME280;48171;51.550;5.434;2023-04-26T00:40:06;101948.88;;;3.72;85.59
61018;BME280;48171;51.550;5.434;2023-04-26T00:42:31;101945.31;;;3.70;86.04
61018;BME280;48171;51.550;5.434;2023-04-26T00:44:56;101948.69;;;3.67;86.50
61018;BME280;48171;51.550;5.434;2023-04-26T00:47:23;101949.47;;;3.65;86.77
61018;BME280;48171;51.550;5.434;2023-04-26T00:49:49;101960.75;;;3.64;86.90
61018;BME280;48171;51.550;5.434;2023-04-26T00:52:15;101952.78;;;3.60;86.82
61018;BME280;48171;51.550;5.434;2023-04-26T00:54:40;101951.75;;;3.57;87.24
61018;BME280;48171;51.550;5.434;2023-04-26T00:57:06;101956.88;;;3.54;87.63
61018;BME280;48171;51.550;5.434;2023-04-26T00:59:34;101956.75;;;3.51;87.75
61018;BME280;48171;51.550;5.434;2023-04-26T01:02:01;101947.06;;;3.48;87.88
61018;BME280;48171;51.550;5.434;2023-04-26T01:04:27;101951.28;;;3.45;87.25
61018;BME280;48171;51.550;5.434;2023-04-26T01:06:54;101950.22;;;3.39;87.56
61018;BME280;48171;51.550;5.434;2023-04-26T01:09:20;101940.53;;;3.37;87.78
61018;BME280;48171;51.550;5.434;2023-04-26T01:11:46;101940.47;;;3.35;87.98
61018;BME280;48171;51.550;5.434;2023-04-26T01:14:13;101943.13;;;3.37;88.29
61018;BME280;48171;51.550;5.434;2023-04-26T01:16:39;101956.25;;;3.38;88.11
61018;BME280;48171;51.550;5.434;2023-04-26T01:19:11;101949.19;;;3.36;88.16
61018;BME280;48171;51.550;5.434;2023-04-26T01:21:37;101954.34;;;3.34;88.18
61018;BME280;48171;51.550;5.434;2023-04-26T01:24:03;101952.53;;;3.32;88.56
61018;BME280;48171;51.550;5.434;2023-04-26T01:26:29;101948.88;;;3.28;88.28
61018;BME280;48171;51.550;5.434;2023-04-26T01:28:55;101946.09;;;3.24;87.38
61018;BME280;48171;51.550;5.434;2023-04-26T01:31:20;101956.47;;;3.22;87.41
61018;BME280;48171;51.550;5.434;2023-04-26T01:33:46;101954.69;;;3.21;87.84
61018;BME280;48171;51.550;5.434;2023-04-26T01:36:11;101964.16;;;3.19;88.13
61018;BME280;48171;51.550;5.434;2023-04-26T01:38:36;101960.59;;;3.17;88.19
61018;BME280;48171;51.550;5.434;2023-04-26T01:41:02;101962.47;;;3.19;88.53
61018;BME280;48171;51.550;5.434;2023-04-26T01:43:27;101964.94;;;3.16;88.10
61018;BME280;48171;51.550;5.434;2023-04-26T01:45:52;101962.41;;;3.18;88.74
61018;BME280;48171;51.550;5.434;2023-04-26T01:48:18;101954.38;;;3.13;88.54
61018;BME280;48171;51.550;5.434;2023-04-26T01:50:43;101954.16;;;3.09;88.45
61018;BME280;48171;51.550;5.434;2023-04-26T01:53:09;101956.78;;;3.09;88.84
61018;BME280;48171;51.550;5.434;2023-04-26T01:55:34;101953.28;;;3.08;88.84
61018;BME280;48171;51.550;5.434;2023-04-26T01:57:59;101952.41;;;3.08;89.42
61018;BME280;48171;51.550;5.434;2023-04-26T02:00:26;101960.25;;;3.08;89.37
61018;BME280;48171;51.550;5.434;2023-04-26T02:02:53;101962.78;;;3.06;89.11
61018;BME280;48171;51.550;5.434;2023-04-26T02:05:19;101962.72;;;3.05;88.88
61018;BME280;48171;51.550;5.434;2023-04-26T02:07:44;101963.38;;;2.99;88.93
61018;BME280;48171;51.550;5.434;2023-04-26T02:10:10;101964.03;;;2.95;88.87
61018;BME280;48171;51.550;5.434;2023-04-26T02:12:35;101964.94;;;2.95;88.33
61018;BME280;48171;51.550;5.434;2023-04-26T02:15:00;101958.81;;;2.95;88.33
61018;BME280;48171;51.550;5.434;2023-04-26T02:17:26;101958.69;;;2.92;88.51
61018;BME280;48171;51.550;5.434;2023-04-26T02:19:51;101958.69;;;2.92;87.88
61018;BME280;48171;51.550;5.434;2023-04-26T02:22:16;101956.09;;;2.92;87.96
61018;BME280;48171;51.550;5.434;2023-04-26T02:24:42;101951.69;;;2.91;87.26
61018;BME280;48171;51.550;5.434;2023-04-26T02:27:07;101956.91;;;2.91;87.91
61018;BME280;48171;51.550;5.434;2023-04-26T02:29:32;101945.47;;;2.87;88.26
61018;BME280;48171;51.550;5.434;2023-04-26T02:31:58;101952.28;;;2.84;88.78
61018;BME280;48171;51.550;5.434;2023-04-26T02:34:23;101948.69;;;2.82;89.28
61018;BME280;48171;51.550;5.434;2023-04-26T02:36:48;101952.13;;;2.80;89.57
61018;BME280;48171;51.550;5.434;2023-04-26T02:39:14;101950.22;;;2.76;89.31
61018;BME280;48171;51.550;5.434;2023-04-26T02:41:39;101945.00;;;2.76;89.11
61018;BME280;48171;51.550;5.434;2023-04-26T02:44:04;101944.03;;;2.74;89.27
61018;BME280;48171;51.550;5.434;2023-04-26T02:46:30;101942.25;;;2.73;89.41
61018;BME280;48171;51.550;5.434;2023-04-26T02:48:55;101943.16;;;2.74;89.07
61018;BME280;48171;51.550;5.434;2023-04-26T02:51:20;101947.34;;;2.70;89.02
61018;BME280;48171;51.550;5.434;2023-04-26T02:53:45;101954.16;;;2.67;88.71
61018;BME280;48171;51.550;5.434;2023-04-26T02:56:11;101947.91;;;2.63;88.30
61018;BME280;48171;51.550;5.434;2023-04-26T02:58:36;101946.13;;;2.62;88.95
61018;BME280;48171;51.550;5.434;2023-04-26T03:01:01;101944.28;;;2.59;89.38
61018;BME280;48171;51.550;5.434;2023-04-26T03:03:28;101946.81;;;2.58;89.24
61018;BME280;48171;51.550;5.434;2023-04-26T03:05:54;101941.34;;;2.52;88.94
61018;BME280;48171;51.550;5.434;2023-04-26T03:08:20;101935.72;;;2.43;89.34
61018;BME280;48171;51.550;5.434;2023-04-26T03:10:45;101927.69;;;2.38;89.87
61018;BME280;48171;51.550;5.434;2023-04-26T03:13:11;101932.22;;;2.42;89.63
61018;BME280;48171;51.550;5.434;2023-04-26T03:15:36;101931.25;;;2.40;89.68
61018;BME280;48171;51.550;5.434;2023-04-26T03:18:01;101927.00;;;2.42;89.24
61018;BME280;48171;51.550;5.434;2023-04-26T03:20:26;101936.47;;;2.40;89.94
61018;BME280;48171;51.550;5.434;2023-04-26T03:22:52;101932.91;;;2.38;90.23
61018;BME280;48171;51.550;5.434;2023-04-26T03:25:17;101939.84;;;2.37;90.02
61018;BME280;48171;51.550;5.434;2023-04-26T03:27:42;101929.97;;;2.30;90.03
61018;BME280;48171;51.550;5.434;2023-04-26T03:30:08;101931.59;;;2.28;90.13
61018;BME280;48171;51.550;5.434;2023-04-26T03:32:33;101933.41;;;2.29;89.79
61018;BME280;48171;51.550;5.434;2023-04-26T03:34:59;101936.00;;;2.29;89.52
61018;BME280;48171;51.550;5.434;2023-04-26T03:37:24;101926.34;;;2.27;88.62
61018;BME280;48171;51.550;5.434;2023-04-26T03:39:50;101930.59;;;2.25;89.16
61018;BME280;48171;51.550;5.434;2023-04-26T03:42:18;101923.56;;;2.24;89.13
61018;BME280;48171;51.550;5.434;2023-04-26T03:44:43;101921.66;;;2.19;89.45
61018;BME280;48171;51.550;5.434;2023-04-26T03:47:08;101923.38;;;2.19;89.14
61018;BME280;48171;51.550;5.434;2023-04-26T03:49:34;101923.31;;;2.17;88.73
61018;BME280;48171;51.550;5.434;2023-04-26T03:51:59;101918.03;;;2.16;89.32
61018;BME280;48171;51.550;5.434;2023-04-26T03:54:24;101929.38;;;2.16;89.43
61018;BME280;48171;51.550;5.434;2023-04-26T03:56:49;101928.44;;;2.16;89.78
61018;BME280;48171;51.550;5.434;2023-04-26T03:59:15;101925.91;;;2.17;90.18
61018;BME280;48171;51.550;5.434;2023-04-26T04:01:40;101933.66;;;2.16;90.12
61018;BME280;48171;51.550;5.434;2023-04-26T04:04:06;101935.38;;;2.15;90.40
61018;BME280;48171;51.550;5.434;2023-04-26T04:06:31;101931.00;;;2.14;90.33
61018;BME280;48171;51.550;5.434;2023-04-26T04:08:57;101930.16;;;2.15;90.31
61018;BME280;48171;51.550;5.434;2023-04-26T04:11:22;101931.81;;;2.13;90.30
61018;BME280;48171;51.550;5.434;2023-04-26T04:13:47;101933.63;;;2.14;90.08
61018;BME280;48171;51.550;5.434;2023-04-26T04:16:12;101922.16;;;2.11;90.02
61018;BME280;48171;51.550;5.434;2023-04-26T04:18:38;101927.38;;;2.11;90.24
61018;BME280;48171;51.550;5.434;2023-04-26T04:21:03;101929.00;;;2.09;90.12
61018;BME280;48171;51.550;5.434;2023-04-26T04:23:28;101930.66;;;2.07;90.58
61018;BME280;48171;51.550;5.434;2023-04-26T04:25:54;101925.28;;;2.04;90.29
61018;BME280;48171;51.550;5.434;2023-04-26T04:28:19;101925.25;;;2.02;90.42
61018;BME280;48171;51.550;5.434;2023-04-26T04:30:46;101928.59;;;1.99;90.75
61018;BME280;48171;51.550;5.434;2023-04-26T04:33:12;101925.94;;;1.98;90.93
61018;BME280;48171;51.550;5.434;2023-04-26T04:35:37;101933.78;;;1.99;90.93
61018;BME280;48171;51.550;5.434;2023-04-26T04:38:04;101933.88;;;2.01;91.11
61018;BME280;48171;51.550;5.434;2023-04-26T04:40:30;101933.00;;;2.00;91.30
61018;BME280;48171;51.550;5.434;2023-04-26T04:42:55;101933.94;;;2.03;91.54
61018;BME280;48171;51.550;5.434;2023-04-26T04:45:20;101939.09;;;2.01;91.43
61018;BME280;48171;51.550;5.434;2023-04-26T04:47:46;101943.50;;;2.02;91.49
61018;BME280;48171;51.550;5.434;2023-04-26T04:50:11;101940.81;;;2.00;91.74
61018;BME280;48171;51.550;5.434;2023-04-26T04:52:36;101937.44;;;2.03;91.59
61018;BME280;48171;51.550;5.434;2023-04-26T04:55:02;101944.44;;;2.04;91.69
61018;BME280;48171;51.550;5.434;2023-04-26T04:57:29;101953.22;;;2.06;92.17
61018;BME280;48171;51.550;5.434;2023-04-26T04:59:55;101962.75;;;2.06;92.44
61018;BME280;48171;51.550;5.434;2023-04-26T05:02:20;101971.41;;;2.05;92.96
61018;BME280;48171;51.550;5.434;2023-04-26T05:04:46;101955.00;;;2.07;93.16
61018;BME280;48171;51.550;5.434;2023-04-26T05:07:12;101956.84;;;2.10;93.58
61018;BME280;48171;51.550;5.434;2023-04-26T05:09:40;101961.34;;;2.12;93.54
61018;BME280;48171;51.550;5.434;2023-04-26T05:12:06;101957.13;;;2.16;93.67
61018;BME280;48171;51.550;5.434;2023-04-26T05:14:31;101960.00;;;2.22;94.09
61018;BME280;48171;51.550;5.434;2023-04-26T05:16:56;101959.31;;;2.26;94.46
61018;BME280;48171;51.550;5.434;2023-04-26T05:19:21;101959.47;;;2.29;94.79
61018;BME280;48171;51.550;5.434;2023-04-26T05:21:47;101967.38;;;2.31;95.43
61018;BME280;48171;51.550;5.434;2023-04-26T05:24:12;101970.19;;;2.35;95.43
61018;BME280;48171;51.550;5.434;2023-04-26T05:26:38;101960.78;;;2.39;95.67
61018;BME280;48171;51.550;5.434;2023-04-26T05:29:03;101958.25;;;2.40;96.34
61018;BME280;48171;51.550;5.434;2023-04-26T05:31:28;101965.38;;;2.45;96.41
61018;BME280;48171;51.550;5.434;2023-04-26T05:33:54;101963.78;;;2.48;96.63
61018;BME280;48171;51.550;5.434;2023-04-26T05:36:19;101964.72;;;2.50;96.95
61018;BME280;48171;51.550;5.434;2023-04-26T05:38:45;101964.97;;;2.55;97.33
61018;BME280;48171;51.550;5.434;2023-04-26T05:41:10;101964.25;;;2.59;97.56
61018;BME280;48171;51.550;5.434;2023-04-26T05:43:36;101968.66;;;2.60;98.05
61018;BME280;48171;51.550;5.434;2023-04-26T05:46:01;101976.63;;;2.63;98.36
61018;BME280;48171;51.550;5.434;2023-04-26T05:48:27;101967.13;;;2.65;98.88
61018;BME280;48171;51.550;5.434;2023-04-26T05:50:54;101971.59;;;2.68;99.27
61018;BME280;48171;51.550;5.434;2023-04-26T05:53:19;101965.75;;;2.73;99.66
61018;BME280;48171;51.550;5.434;2023-04-26T05:55:44;101969.50;;;2.80;99.73
61018;BME280;48171;51.550;5.434;2023-04-26T05:58:10;101967.03;;;2.83;99.59
61018;BME280;48171;51.550;5.434;2023-04-26T06:00:36;101964.53;;;2.86;99.69
61018;BME280;48171;51.550;5.434;2023-04-26T06:03:02;101968.28;;;2.93;99.75
61018;BME280;48171;51.550;5.434;2023-04-26T06:05:28;101973.75;;;2.97;99.55
61018;BME280;48171;51.550;5.434;2023-04-26T06:07:53;101970.50;;;3.03;99.81
61018;BME280;48171;51.550;5.434;2023-04-26T06:10:19;101964.69;;;3.10;100.00
61018;BME280;48171;51.550;5.434;2023-04-26T06:12:46;101964.16;;;3.19;100.00
61018;BME280;48171;51.550;5.434;2023-04-26T06:15:11;101972.31;;;3.27;100.00
61018;BME280;48171;51.550;5.434;2023-04-26T06:17:37;101965.75;;;3.36;100.00
61018;BME280;48171;51.550;5.434;2023-04-26T06:20:02;101967.72;;;3.42;100.00
61018;BME280;48171;51.550;5.434;2023-04-26T06:22:29;101976.84;;;3.52;100.00
61018;BME280;48171;51.550;5.434;2023-04-26T06:24:54;101982.34;;;3.59;100.00
61018;BME280;48171;51.550;5.434;2023-04-26T06:27:20;101976.47;;;3.65;100.00
61018;BME280;48171;51.550;5.434;2023-04-26T06:29:45;101981.00;;;3.69;100.00
61018;BME280;48171;51.550;5.434;2023-04-26T06:32:10;101979.53;;;3.76;99.98
61018;BME280;48171;51.550;5.434;2023-04-26T06:34:36;101984.94;;;3.80;100.00
61018;BME280;48171;51.550;5.434;2023-04-26T06:37:03;101989.50;;;3.86;100.00
61018;BME280;48171;51.550;5.434;2023-04-26T06:39:28;101982.78;;;3.93;100.00
61018;BME280;48171;51.550;5.434;2023-04-26T06:41:53;101990.06;;;4.00;100.00
61018;BME280;48171;51.550;5.434;2023-04-26T06:44:19;101994.66;;;4.07;100.00
61018;BME280;48171;51.550;5.434;2023-04-26T06:46:44;101998.47;;;4.15;100.00
61018;BME280;48171;51.550;5.434;2023-04-26T06:49:09;101995.25;;;4.23;99.58
61018;BME280;48171;51.550;5.434;2023-04-26T06:51:35;101994.53;;;4.27;100.00
61018;BME280;48171;51.550;5.434;2023-04-26T06:54:01;101994.81;;;4.34;100.00
61018;BME280;48171;51.550;5.434;2023-04-26T06:56:26;101999.44;;;4.41;100.00
61018;BME280;48171;51.550;5.434;2023-04-26T06:58:59;101991.75;;;4.46;100.00
61018;BME280;48171;51.550;5.434;2023-04-26T07:01:25;101994.56;;;4.52;100.00
61018;BME280;48171;51.550;5.434;2023-04-26T07:03:53;101994.88;;;4.60;100.00
61018;BME280;48171;51.550;5.434;2023-04-26T07:06:18;101982.56;;;4.57;100.00
61018;BME280;48171;51.550;5.434;2023-04-26T07:08:43;101992.81;;;4.75;100.00
61018;BME280;48171;51.550;5.434;2023-04-26T07:11:09;101997.41;;;4.82;100.00
61018;BME280;48171;51.550;5.434;2023-04-26T07:13:35;101995.91;;;4.89;100.00
61018;BME280;48171;51.550;5.434;2023-04-26T07:16:00;101989.75;;;4.89;99.92
61018;BME280;48171;51.550;5.434;2023-04-26T07:18:25;102004.13;;;5.00;99.86
61018;BME280;48171;51.550;5.434;2023-04-26T07:20:51;102002.56;;;5.05;98.78
61018;BME280;48171;51.550;5.434;2023-04-26T07:23:16;102000.09;;;5.10;99.94
61018;BME280;48171;51.550;5.434;2023-04-26T07:25:41;102002.06;;;5.17;100.00
61018;BME280;48171;51.550;5.434;2023-04-26T07:28:07;101997.09;;;5.25;100.00
61018;BME280;48171;51.550;5.434;2023-04-26T07:30:32;102000.84;;;5.31;99.65
61018;BME280;48171;51.550;5.434;2023-04-26T07:32:58;102001.06;;;5.39;98.98
61018;BME280;48171;51.550;5.434;2023-04-26T07:35:23;101997.75;;;5.45;97.94
61018;BME280;48171;51.550;5.434;2023-04-26T07:37:48;101997.06;;;5.50;97.31
61018;BME280;48171;51.550;5.434;2023-04-26T07:40:14;101987.59;;;5.55;96.01
61018;BME280;48171;51.550;5.434;2023-04-26T07:42:39;101993.91;;;5.60;94.12
61018;BME280;48171;51.550;5.434;2023-04-26T07:45:05;101995.84;;;5.66;93.30
61018;BME280;48171;51.550;5.434;2023-04-26T07:47:30;101995.16;;;5.73;91.41
61018;BME280;48171;51.550;5.434;2023-04-26T07:49:56;101995.34;;;5.78;90.41
61018;BME280;48171;51.550;5.434;2023-04-26T07:52:21;101996.41;;;5.85;92.79
61018;BME280;48171;51.550;5.434;2023-04-26T07:54:46;101987.84;;;5.90;92.20
61018;BME280;48171;51.550;5.434;2023-04-26T07:57:12;101991.47;;;5.94;91.94
61018;BME280;48171;51.550;5.434;2023-04-26T07:59:37;101987.38;;;6.04;93.09
61018;BME280;48171;51.550;5.434;2023-04-26T08:02:02;101994.59;;;6.11;89.75
61018;BME280;48171;51.550;5.434;2023-04-26T08:04:32;101999.16;;;6.16;84.59
61018;BME280;48171;51.550;5.434;2023-04-26T08:07:00;102005.34;;;6.20;82.94
61018;BME280;48171;51.550;5.434;2023-04-26T08:09:27;102009.03;;;6.25;84.25
61018;BME280;48171;51.550;5.434;2023-04-26T08:11:53;102011.75;;;6.28;80.36
61018;BME280;48171;51.550;5.434;2023-04-26T08:14:18;102010.91;;;6.29;80.13
61018;BME280;48171;51.550;5.434;2023-04-26T08:16:44;102013.69;;;6.35;81.64
61018;BME280;48171;51.550;5.434;2023-04-26T08:19:09;102013.16;;;6.47;83.73
61018;BME280;48171;51.550;5.434;2023-04-26T08:21:35;102014.38;;;6.58;83.42
61018;BME280;48171;51.550;5.434;2023-04-26T08:24:00;102009.25;;;6.63;81.42
61018;BME280;48171;51.550;5.434;2023-04-26T08:26:25;101999.66;;;6.65;81.52
61018;BME280;48171;51.550;5.434;2023-04-26T08:28:50;102000.59;;;6.67;82.33
61018;BME280;48171;51.550;5.434;2023-04-26T08:31:16;102002.50;;;6.73;79.55
61018;BME280;48171;51.550;5.434;2023-04-26T08:33:41;102007.03;;;6.78;77.80
61018;BME280;48171;51.550;5.434;2023-04-26T08:36:06;102009.81;;;6.85;79.78
61018;BME280;48171;51.550;5.434;2023-04-26T08:38:32;102005.59;;;6.90;78.28
61018;BME280;48171;51.550;5.434;2023-04-26T08:40:58;102006.50;;;6.92;76.40
61018;BME280;48171;51.550;5.434;2023-04-26T08:43:28;102006.50;;;6.92;76.72
61018;BME280;48171;51.550;5.434;2023-04-26T08:45:53;102004.78;;;6.92;74.52
61018;BME280;48171;51.550;5.434;2023-04-26T08:48:19;102003.06;;;6.93;74.42
61018;BME280;48171;51.550;5.434;2023-04-26T08:50:46;102007.34;;;6.89;73.92
61018;BME280;48171;51.550;5.434;2023-04-26T08:53:16;101995.91;;;6.87;74.26
61018;BME280;48171;51.550;5.434;2023-04-26T08:55:46;101995.84;;;6.86;74.54
61018;BME280;48171;51.550;5.434;2023-04-26T08:58:12;101995.06;;;6.90;75.06
61018;BME280;48171;51.550;5.434;2023-04-26T09:00:38;101989.16;;;6.97;77.08
61018;BME280;48171;51.550;5.434;2023-04-26T09:03:03;101993.75;;;7.06;78.88
61018;BME280;48171;51.550;5.434;2023-04-26T09:05:29;101996.72;;;7.19;75.39
61018;BME280;48171;51.550;5.434;2023-04-26T09:08:00;101997.09;;;7.33;76.53
61018;BME280;48171;51.550;5.434;2023-04-26T09:10:29;101995.44;;;7.38;69.62
61018;BME280;48171;51.550;5.434;2023-04-26T09:12:56;101984.91;;;7.38;70.83
61018;BME280;48171;51.550;5.434;2023-04-26T09:15:23;101990.19;;;7.38;67.95
61018;BME280;48171;51.550;5.434;2023-04-26T09:17:49;101974.25;;;7.32;70.77
61018;BME280;48171;51.550;5.434;2023-04-26T09:20:29;101982.28;;;7.38;72.55
61018;BME280;48171;51.550;5.434;2023-04-26T09:23:06;101977.97;;;7.40;71.71
61018;BME280;48171;51.550;5.434;2023-04-26T09:25:32;101991.16;;;7.42;69.21
61018;BME280;48171;51.550;5.434;2023-04-26T09:27:58;101978.88;;;7.43;68.56
61018;BME280;48171;51.550;5.434;2023-04-26T09:30:24;101982.53;;;7.48;70.80
61018;BME280;48171;51.550;5.434;2023-04-26T09:32:57;101984.38;;;7.52;67.66
61018;BME280;48171;51.550;5.434;2023-04-26T09:35:31;101982.72;;;7.55;65.93
61018;BME280;48171;51.550;5.434;2023-04-26T09:38:01;101990.63;;;7.57;65.27
61018;BME280;48171;51.550;5.434;2023-04-26T09:40:29;101995.09;;;7.59;64.08
61018;BME280;48171;51.550;5.434;2023-04-26T09:43:06;101989.94;;;7.64;68.25
61018;BME280;48171;51.550;5.434;2023-04-26T09:45:39;101996.94;;;7.64;65.38
61018;BME280;48171;51.550;5.434;2023-04-26T09:48:20;101994.38;;;7.67;65.76
61018;BME280;48171;51.550;5.434;2023-04-26T09:50:47;101992.59;;;7.66;64.03
61018;BME280;48171;51.550;5.434;2023-04-26T09:53:33;101989.09;;;7.67;66.75
61018;BME280;48171;51.550;5.434;2023-04-26T09:56:12;101987.34;;;7.66;68.23
61018;BME280;48171;51.550;5.434;2023-04-26T10:01:17;101988.91;;;7.57;66.50
61018;BME280;48171;51.550;5.434;2023-04-26T10:03:42;101988.00;;;7.57;67.24
61018;BME280;48171;51.550;5.434;2023-04-26T10:06:08;101983.47;;;7.50;65.09
61018;BME280;48171;51.550;5.434;2023-04-26T10:08:34;101986.91;;;7.49;65.11
61018;BME280;48171;51.550;5.434;2023-04-26T10:10:59;101985.13;;;7.46;63.67
61018;BME280;48171;51.550;5.434;2023-04-26T10:13:30;101990.38;;;7.46;64.05
61018;BME280;48171;51.550;5.434;2023-04-26T10:15:57;101992.06;;;7.44;63.55
61018;BME280;48171;51.550;5.434;2023-04-26T10:18:22;101999.09;;;7.45;64.77
61018;BME280;48171;51.550;5.434;2023-04-26T10:20:51;101994.75;;;7.47;65.35
61018;BME280;48171;51.550;5.434;2023-04-26T10:23:20;101992.13;;;7.46;64.19
61018;BME280;48171;51.550;5.434;2023-04-26T10:25:47;101989.56;;;7.49;63.83
61018;BME280;48171;51.550;5.434;2023-04-26T10:28:12;101989.63;;;7.52;63.29
61018;BME280;48171;51.550;5.434;2023-04-26T10:30:53;101995.09;;;7.61;64.84
61018;BME280;48171;51.550;5.434;2023-04-26T10:33:19;101981.25;;;7.68;63.82
61018;BME280;48171;51.550;5.434;2023-04-26T10:38:28;101976.38;;;7.85;63.58
61018;BME280;48171;51.550;5.434;2023-04-26T10:40:53;101976.50;;;7.90;64.11
61018;BME280;48171;51.550;5.434;2023-04-26T10:45:48;101969.63;;;7.96;66.17
61018;BME280;48171;51.550;5.434;2023-04-26T10:51:08;101965.56;;;8.12;66.99
61018;BME280;48171;51.550;5.434;2023-04-26T10:58:47;101965.06;;;8.30;62.84
61018;BME280;48171;51.550;5.434;2023-04-26T11:01:17;101969.53;;;8.36;64.35
61018;BME280;48171;51.550;5.434;2023-04-26T11:04:06;101968.09;;;8.49;66.33
61018;BME280;48171;51.550;5.434;2023-04-26T11:06:49;101967.38;;;8.57;64.85
61018;BME280;48171;51.550;5.434;2023-04-26T11:12:00;101956.13;;;8.66;64.33
61018;BME280;48171;51.550;5.434;2023-04-26T11:14:27;101959.66;;;8.68;63.63
61018;BME280;48171;51.550;5.434;2023-04-26T11:16:52;101954.41;;;8.68;61.67
61018;BME280;48171;51.550;5.434;2023-04-26T11:19:17;101949.97;;;8.66;60.30
61018;BME280;48171;51.550;5.434;2023-04-26T11:21:43;101956.91;;;8.62;60.41
61018;BME280;48171;51.550;5.434;2023-04-26T11:24:08;101951.72;;;8.65;59.99
61018;BME280;48171;51.550;5.434;2023-04-26T11:26:33;101947.34;;;8.66;61.77
61018;BME280;48171;51.550;5.434;2023-04-26T11:29:00;101949.94;;;8.63;61.37
61018;BME280;48171;51.550;5.434;2023-04-26T11:31:25;101949.03;;;8.62;62.32
61018;BME280;48171;51.550;5.434;2023-04-26T11:33:51;101935.88;;;8.64;65.15
61018;BME280;48171;51.550;5.434;2023-04-26T11:36:16;101927.13;;;8.66;62.42
61018;BME280;48171;51.550;5.434;2023-04-26T11:38:43;101933.28;;;8.65;60.39
61018;BME280;48171;51.550;5.434;2023-04-26T11:41:09;101933.28;;;8.65;61.66
61018;BME280;48171;51.550;5.434;2023-04-26T11:43:38;101937.69;;;8.66;61.08
61018;BME280;48171;51.550;5.434;2023-04-26T11:46:06;101938.59;;;8.68;60.79
61018;BME280;48171;51.550;5.434;2023-04-26T11:48:33;101938.66;;;8.71;60.54
61018;BME280;48171;51.550;5.434;2023-04-26T11:51:02;101946.72;;;8.79;61.28
61018;BME280;48171;51.550;5.434;2023-04-26T11:53:38;101934.59;;;8.89;62.60
61018;BME280;48171;51.550;5.434;2023-04-26T11:56:12;101941.75;;;8.97;60.07
61018;BME280;48171;51.550;5.434;2023-04-26T11:58:39;101941.84;;;9.02;59.80
61018;BME280;48171;51.550;5.434;2023-04-26T12:01:04;101940.16;;;9.06;60.42
61018;BME280;48171;51.550;5.434;2023-04-26T12:03:31;101956.84;;;9.06;60.87
61018;BME280;48171;51.550;5.434;2023-04-26T12:05:59;101941.09;;;9.09;61.53
61018;BME280;48171;51.550;5.434;2023-04-26T12:08:25;101955.28;;;9.17;57.82
61018;BME280;48171;51.550;5.434;2023-04-26T12:10:51;101939.50;;;9.19;56.91
61018;BME280;48171;51.550;5.434;2023-04-26T12:13:17;101940.44;;;9.24;58.89
61018;BME280;48171;51.550;5.434;2023-04-26T12:15:44;101941.34;;;9.26;58.60
61018;BME280;48171;51.550;5.434;2023-04-26T12:18:10;101944.81;;;9.22;56.59
61018;BME280;48171;51.550;5.434;2023-04-26T12:20:37;101947.34;;;9.16;56.83
61018;BME280;48171;51.550;5.434;2023-04-26T12:23:12;101941.19;;;9.15;55.30
61018;BME280;48171;51.550;5.434;2023-04-26T12:25:38;101947.41;;;9.19;55.32
61018;BME280;48171;51.550;5.434;2023-04-26T12:28:09;101940.44;;;9.24;55.83
61018;BME280;48171;51.550;5.434;2023-04-26T12:30:37;101946.69;;;9.29;57.38
61018;BME280;48171;51.550;5.434;2023-04-26T12:33:03;101946.69;;;9.29;56.59
61018;BME280;48171;51.550;5.434;2023-04-26T12:35:29;101942.28;;;9.30;57.25
61018;BME280;48171;51.550;5.434;2023-04-26T12:37:54;101937.94;;;9.32;58.03
61018;BME280;48171;51.550;5.434;2023-04-26T12:40:22;101938.88;;;9.35;56.66
61018;BME280;48171;51.550;5.434;2023-04-26T12:42:48;101944.25;;;9.41;57.36
61018;BME280;48171;51.550;5.434;2023-04-26T12:45:14;101935.50;;;9.46;58.63
61018;BME280;48171;51.550;5.434;2023-04-26T12:47:39;101942.72;;;9.57;58.25
61018;BME280;48171;51.550;5.434;2023-04-26T12:50:05;101945.50;;;9.67;56.91
61018;BME280;48171;51.550;5.434;2023-04-26T12:52:31;101946.44;;;9.73;57.07
61018;BME280;48171;51.550;5.434;2023-04-26T12:54:57;101934.16;;;9.75;54.47
61018;BME280;48171;51.550;5.434;2023-04-26T12:57:22;101932.50;;;9.80;56.82
61018;BME280;48171;51.550;5.434;2023-04-26T12:59:47;101936.03;;;9.82;54.97
61018;BME280;48171;51.550;5.434;2023-04-26T13:02:12;101929.81;;;9.79;54.99
61018;BME280;48171;51.550;5.434;2023-04-26T13:04:38;101927.16;;;9.76;52.56
61018;BME280;48171;51.550;5.434;2023-04-26T13:07:03;101932.41;;;9.74;53.46
61018;BME280;48171;51.550;5.434;2023-04-26T13:09:29;101930.63;;;9.72;52.54
61018;BME280;48171;51.550;5.434;2023-04-26T13:11:54;101933.25;;;9.72;52.90
61018;BME280;48171;51.550;5.434;2023-04-26T13:14:19;101927.91;;;9.67;53.55